sensor_id;sensor_type;location;lat;lon;timestamp;P1;durP1;ratioP1;P2;durP2;ratioP2
79241;SDS011;68670;48.720;9.118;2023-12-07T00:01:30;10.05;;;4.03;;
79241;SDS011;68670;48.720;9.118;2023-12-07T00:03:55;8.98;;;4.10;;
79241;SDS011;68670;48.720;9.118;2023-12-07T00:06:20;9.20;;;4.00;;
79241;SDS011;68670;48.720;9.118;2023-12-07T00:08:45;9.33;;;4.13;;
79241;SDS011;68670;48.720;9.118;2023-12-07T00:11:15;9.48;;;4.32;;
79241;SDS011;68670;48.720;9.118;2023-12-07T00:13:43;11.57;;;4.65;;
79241;SDS011;68670;48.720;9.118;2023-12-07T00:18:36;20.73;;;6.57;;
79241;SDS011;68670;48.720;9.118;2023-12-07T00:21:03;9.50;;;4.18;;
79241;SDS011;68670;48.720;9.118;2023-12-07T00:23:29;10.73;;;4.20;;
79241;SDS011;68670;48.720;9.118;2023-12-07T00:25:54;9.60;;;4.20;;
79241;SDS011;68670;48.720;9.118;2023-12-07T00:28:26;11.52;;;3.80;;
79241;SDS011;68670;48.720;9.118;2023-12-07T00:30:54;8.70;;;4.65;;
79241;SDS011;68670;48.720;9.118;2023-12-07T00:33:20;9.48;;;3.55;;
79241;SDS011;68670;48.720;9.118;2023-12-07T00:35:46;7.80;;;3.70;;
79241;SDS011;68670;48.720;9.118;2023-12-07T00:38:14;7.57;;;4.00;;
79241;SDS011;68670;48.720;9.118;2023-12-07T00:40:41;7.03;;;3.35;;
79241;SDS011;68670;48.720;9.118;2023-12-07T00:43:09;9.90;;;3.72;;
79241;SDS011;68670;48.720;9.118;2023-12-07T00:45:35;6.77;;;3.30;;
79241;SDS011;68670;48.720;9.118;2023-12-07T00:48:02;10.07;;;3.40;;
79241;SDS011;68670;48.720;9.118;2023-12-07T00:50:30;9.23;;;3.58;;
79241;SDS011;68670;48.720;9.118;2023-12-07T00:52:55;7.00;;;3.10;;
79241;SDS011;68670;48.720;9.118;2023-12-07T00:55:23;7.88;;;3.50;;
79241;SDS011;68670;48.720;9.118;2023-12-07T00:57:48;7.40;;;3.17;;
79241;SDS011;68670;48.720;9.118;2023-12-07T01:00:13;7.03;;;2.90;;
79241;SDS011;68670;48.720;9.118;2023-12-07T01:02:39;7.40;;;3.05;;
79241;SDS011;68670;48.720;9.118;2023-12-07T01:05:05;6.15;;;2.92;;
79241;SDS011;68670;48.720;9.118;2023-12-07T01:07:33;7.18;;;3.33;;
79241;SDS011;68670;48.720;9.118;2023-12-07T01:09:58;8.25;;;3.15;;
79241;SDS011;68670;48.720;9.118;2023-12-07T01:12:26;9.57;;;3.70;;
79241;SDS011;68670;48.720;9.118;2023-12-07T01:14:51;5.57;;;2.78;;
79241;SDS011;68670;48.720;9.118;2023-12-07T01:17:16;7.90;;;3.23;;
79241;SDS011;68670;48.720;9.118;2023-12-07T01:19:44;7.68;;;3.03;;
79241;SDS011;68670;48.720;9.118;2023-12-07T01:22:12;7.23;;;2.80;;
79241;SDS011;68670;48.720;9.118;2023-12-07T01:24:38;6.70;;;2.97;;
79241;SDS011;68670;48.720;9.118;2023-12-07T01:27:03;7.33;;;3.07;;
79241;SDS011;68670;48.720;9.118;2023-12-07T01:29:28;8.15;;;3.80;;
79241;SDS011;68670;48.720;9.118;2023-12-07T01:31:54;7.30;;;3.07;;
79241;SDS011;68670;48.720;9.118;2023-12-07T01:34:19;5.90;;;3.03;;
79241;SDS011;68670;48.720;9.118;2023-12-07T01:36:47;5.60;;;3.03;;
79241;SDS011;68670;48.720;9.118;2023-12-07T01:39:15;6.93;;;3.33;;
79241;SDS011;68670;48.720;9.118;2023-12-07T01:41:41;8.70;;;3.25;;
79241;SDS011;68670;48.720;9.118;2023-12-07T01:44:08;8.77;;;3.50;;
79241;SDS011;68670;48.720;9.118;2023-12-07T01:46:33;8.18;;;3.40;;
79241;SDS011;68670;48.720;9.118;2023-12-07T01:49:00;8.13;;;3.63;;
79241;SDS011;68670;48.720;9.118;2023-12-07T01:51:29;10.50;;;3.50;;
79241;SDS011;68670;48.720;9.118;2023-12-07T01:53:56;8.32;;;3.60;;
79241;SDS011;68670;48.720;9.118;2023-12-07T01:56:23;7.57;;;3.47;;
79241;SDS011;68670;48.720;9.118;2023-12-07T01:58:49;9.20;;;3.50;;
79241;SDS011;68670;48.720;9.118;2023-12-07T02:01:15;7.68;;;3.33;;
79241;SDS011;68670;48.720;9.118;2023-12-07T02:03:43;8.63;;;3.30;;
79241;SDS011;68670;48.720;9.118;2023-12-07T02:06:08;8.43;;;3.40;;
79241;SDS011;68670;48.720;9.118;2023-12-07T02:08:39;9.45;;;3.83;;
79241;SDS011;68670;48.720;9.118;2023-12-07T02:11:07;9.98;;;3.45;;
79241;SDS011;68670;48.720;9.118;2023-12-07T02:13:36;7.65;;;3.35;;
79241;SDS011;68670;48.720;9.118;2023-12-07T02:16:07;10.13;;;3.75;;
79241;SDS011;68670;48.720;9.118;2023-12-07T02:18:49;7.53;;;3.63;;
79241;SDS011;68670;48.720;9.118;2023-12-07T02:21:25;9.85;;;3.85;;
79241;SDS011;68670;48.720;9.118;2023-12-07T02:23:59;8.27;;;3.55;;
79241;SDS011;68670;48.720;9.118;2023-12-07T02:26:38;7.30;;;3.40;;
79241;SDS011;68670;48.720;9.118;2023-12-07T02:29:04;9.98;;;3.28;;
79241;SDS011;68670;48.720;9.118;2023-12-07T02:31:32;7.67;;;3.40;;
79241;SDS011;68670;48.720;9.118;2023-12-07T02:33:58;6.78;;;3.30;;
79241;SDS011;68670;48.720;9.118;2023-12-07T02:36:27;8.67;;;3.33;;
79241;SDS011;68670;48.720;9.118;2023-12-07T02:38:58;7.85;;;3.47;;
79241;SDS011;68670;48.720;9.118;2023-12-07T02:41:28;11.57;;;3.92;;
79241;SDS011;68670;48.720;9.118;2023-12-07T02:43:58;13.25;;;4.82;;
79241;SDS011;68670;48.720;9.118;2023-12-07T02:46:25;13.73;;;5.78;;
79241;SDS011;68670;48.720;9.118;2023-12-07T02:48:51;13.07;;;4.93;;
79241;SDS011;68670;48.720;9.118;2023-12-07T02:51:16;13.93;;;4.40;;
79241;SDS011;68670;48.720;9.118;2023-12-07T02:53:41;13.43;;;5.23;;
79241;SDS011;68670;48.720;9.118;2023-12-07T02:56:07;12.32;;;4.85;;
79241;SDS011;68670;48.720;9.118;2023-12-07T02:58:32;12.43;;;4.82;;
79241;SDS011;68670;48.720;9.118;2023-12-07T03:01:00;9.38;;;4.20;;
79241;SDS011;68670;48.720;9.118;2023-12-07T03:03:29;10.13;;;4.70;;
79241;SDS011;68670;48.720;9.118;2023-12-07T03:05:55;11.50;;;4.80;;
79241;SDS011;68670;48.720;9.118;2023-12-07T03:08:20;13.07;;;4.20;;
79241;SDS011;68670;48.720;9.118;2023-12-07T03:10:50;9.95;;;4.40;;
79241;SDS011;68670;48.720;9.118;2023-12-07T03:13:17;12.35;;;4.78;;
79241;SDS011;68670;48.720;9.118;2023-12-07T03:15:45;10.25;;;4.45;;
79241;SDS011;68670;48.720;9.118;2023-12-07T03:18:13;12.25;;;4.57;;
79241;SDS011;68670;48.720;9.118;2023-12-07T03:20:38;9.57;;;4.50;;
79241;SDS011;68670;48.720;9.118;2023-12-07T03:23:03;9.50;;;3.80;;
79241;SDS011;68670;48.720;9.118;2023-12-07T03:25:29;9.10;;;3.83;;
79241;SDS011;68670;48.720;9.118;2023-12-07T03:27:57;12.43;;;4.20;;
79241;SDS011;68670;48.720;9.118;2023-12-07T03:30:22;9.07;;;3.40;;
79241;SDS011;68670;48.720;9.118;2023-12-07T03:32:50;12.03;;;4.13;;
79241;SDS011;68670;48.720;9.118;2023-12-07T03:35:17;11.15;;;3.92;;
79241;SDS011;68670;48.720;9.118;2023-12-07T03:37:43;10.83;;;3.47;;
79241;SDS011;68670;48.720;9.118;2023-12-07T03:40:08;10.33;;;3.90;;
79241;SDS011;68670;48.720;9.118;2023-12-07T03:42:36;9.27;;;4.10;;
79241;SDS011;68670;48.720;9.118;2023-12-07T03:45:02;6.65;;;3.55;;
79241;SDS011;68670;48.720;9.118;2023-12-07T03:47:27;9.52;;;3.90;;
79241;SDS011;68670;48.720;9.118;2023-12-07T03:49:53;9.17;;;3.80;;
79241;SDS011;68670;48.720;9.118;2023-12-07T03:52:18;9.43;;;4.10;;
79241;SDS011;68670;48.720;9.118;2023-12-07T03:54:43;6.97;;;4.03;;
79241;SDS011;68670;48.720;9.118;2023-12-07T03:57:08;8.87;;;3.60;;
79241;SDS011;68670;48.720;9.118;2023-12-07T03:59:35;8.95;;;4.07;;
79241;SDS011;68670;48.720;9.118;2023-12-07T04:02:01;7.72;;;3.55;;
79241;SDS011;68670;48.720;9.118;2023-12-07T04:04:26;8.90;;;3.63;;
79241;SDS011;68670;48.720;9.118;2023-12-07T04:06:52;8.20;;;3.67;;
79241;SDS011;68670;48.720;9.118;2023-12-07T04:09:19;6.53;;;3.43;;
79241;SDS011;68670;48.720;9.118;2023-12-07T04:14:12;6.60;;;3.20;;
79241;SDS011;68670;48.720;9.118;2023-12-07T04:16:38;10.03;;;3.67;;
79241;SDS011;68670;48.720;9.118;2023-12-07T04:19:03;7.97;;;3.38;;
79241;SDS011;68670;48.720;9.118;2023-12-07T04:21:31;9.93;;;4.30;;
79241;SDS011;68670;48.720;9.118;2023-12-07T04:23:56;8.57;;;3.85;;
79241;SDS011;68670;48.720;9.118;2023-12-07T04:26:25;8.10;;;3.78;;
79241;SDS011;68670;48.720;9.118;2023-12-07T04:28:50;8.23;;;3.47;;
79241;SDS011;68670;48.720;9.118;2023-12-07T04:31:16;11.10;;;3.70;;
79241;SDS011;68670;48.720;9.118;2023-12-07T04:33:41;9.23;;;3.80;;
79241;SDS011;68670;48.720;9.118;2023-12-07T04:36:11;5.65;;;3.17;;
79241;SDS011;68670;48.720;9.118;2023-12-07T04:38:37;9.45;;;3.90;;
79241;SDS011;68670;48.720;9.118;2023-12-07T04:41:02;10.43;;;3.95;;
79241;SDS011;68670;48.720;9.118;2023-12-07T04:43:30;7.47;;;3.60;;
79241;SDS011;68670;48.720;9.118;2023-12-07T04:45:55;7.63;;;3.47;;
79241;SDS011;68670;48.720;9.118;2023-12-07T04:48:21;9.25;;;3.58;;
79241;SDS011;68670;48.720;9.118;2023-12-07T04:50:46;7.33;;;3.37;;
79241;SDS011;68670;48.720;9.118;2023-12-07T04:53:13;6.47;;;3.15;;
79241;SDS011;68670;48.720;9.118;2023-12-07T04:55:41;9.65;;;3.45;;
79241;SDS011;68670;48.720;9.118;2023-12-07T04:58:11;8.73;;;3.40;;
79241;SDS011;68670;48.720;9.118;2023-12-07T05:00:37;6.90;;;3.35;;
79241;SDS011;68670;48.720;9.118;2023-12-07T05:03:02;7.73;;;3.60;;
79241;SDS011;68670;48.720;9.118;2023-12-07T05:05:27;7.93;;;3.30;;
79241;SDS011;68670;48.720;9.118;2023-12-07T05:07:55;7.43;;;3.38;;
79241;SDS011;68670;48.720;9.118;2023-12-07T05:10:20;7.72;;;3.08;;
79241;SDS011;68670;48.720;9.118;2023-12-07T05:12:46;9.73;;;3.80;;
79241;SDS011;68670;48.720;9.118;2023-12-07T05:15:13;9.10;;;3.47;;
79241;SDS011;68670;48.720;9.118;2023-12-07T05:17:39;10.57;;;3.95;;
79241;SDS011;68670;48.720;9.118;2023-12-07T05:20:04;7.43;;;3.47;;
79241;SDS011;68670;48.720;9.118;2023-12-07T05:22:33;9.65;;;3.55;;
79241;SDS011;68670;48.720;9.118;2023-12-07T05:24:58;6.97;;;3.17;;
79241;SDS011;68670;48.720;9.118;2023-12-07T05:27:23;7.30;;;3.30;;
79241;SDS011;68670;48.720;9.118;2023-12-07T05:29:48;10.97;;;4.00;;
79241;SDS011;68670;48.720;9.118;2023-12-07T05:32:14;7.87;;;3.50;;
79241;SDS011;68670;48.720;9.118;2023-12-07T05:34:39;15.02;;;4.82;;
79241;SDS011;68670;48.720;9.118;2023-12-07T05:37:04;23.83;;;8.70;;
79241;SDS011;68670;48.720;9.118;2023-12-07T05:39:34;10.57;;;4.20;;
79241;SDS011;68670;48.720;9.118;2023-12-07T05:41:59;13.50;;;4.83;;
79241;SDS011;68670;48.720;9.118;2023-12-07T05:44:25;11.93;;;4.40;;
79241;SDS011;68670;48.720;9.118;2023-12-07T05:46:52;13.20;;;4.60;;
79241;SDS011;68670;48.720;9.118;2023-12-07T05:49:18;11.48;;;4.57;;
79241;SDS011;68670;48.720;9.118;2023-12-07T05:51:43;10.50;;;4.03;;
79241;SDS011;68670;48.720;9.118;2023-12-07T05:54:09;15.03;;;4.70;;
79241;SDS011;68670;48.720;9.118;2023-12-07T05:56:34;11.07;;;4.13;;
79241;SDS011;68670;48.720;9.118;2023-12-07T05:58:59;11.20;;;4.05;;
79241;SDS011;68670;48.720;9.118;2023-12-07T06:01:27;11.27;;;4.18;;
79241;SDS011;68670;48.720;9.118;2023-12-07T06:03:52;11.55;;;4.40;;
79241;SDS011;68670;48.720;9.118;2023-12-07T06:06:18;9.37;;;4.13;;
79241;SDS011;68670;48.720;9.118;2023-12-07T06:08:45;11.93;;;4.32;;
79241;SDS011;68670;48.720;9.118;2023-12-07T06:11:10;11.80;;;4.10;;
79241;SDS011;68670;48.720;9.118;2023-12-07T06:13:35;10.63;;;4.20;;
79241;SDS011;68670;48.720;9.118;2023-12-07T06:16:00;12.38;;;4.40;;
79241;SDS011;68670;48.720;9.118;2023-12-07T06:18:28;10.10;;;4.38;;
79241;SDS011;68670;48.720;9.118;2023-12-07T06:20:53;14.63;;;4.97;;
79241;SDS011;68670;48.720;9.118;2023-12-07T06:23:18;9.65;;;3.97;;
79241;SDS011;68670;48.720;9.118;2023-12-07T06:25:45;10.25;;;4.82;;
79241;SDS011;68670;48.720;9.118;2023-12-07T06:28:10;12.23;;;4.63;;
79241;SDS011;68670;48.720;9.118;2023-12-07T06:30:38;9.93;;;4.07;;
79241;SDS011;68670;48.720;9.118;2023-12-07T06:33:12;13.00;;;4.88;;
79241;SDS011;68670;48.720;9.118;2023-12-07T06:35:37;11.13;;;4.60;;
79241;SDS011;68670;48.720;9.118;2023-12-07T06:38:03;13.30;;;5.20;;
79241;SDS011;68670;48.720;9.118;2023-12-07T06:40:29;12.87;;;4.43;;
79241;SDS011;68670;48.720;9.118;2023-12-07T06:42:56;11.27;;;4.63;;
79241;SDS011;68670;48.720;9.118;2023-12-07T06:45:21;13.27;;;4.97;;
79241;SDS011;68670;48.720;9.118;2023-12-07T06:47:47;12.90;;;4.90;;
79241;SDS011;68670;48.720;9.118;2023-12-07T06:50:14;14.02;;;4.97;;
79241;SDS011;68670;48.720;9.118;2023-12-07T06:52:40;9.33;;;4.00;;
79241;SDS011;68670;48.720;9.118;2023-12-07T06:55:05;14.05;;;5.13;;
79241;SDS011;68670;48.720;9.118;2023-12-07T06:57:31;13.85;;;5.03;;
79241;SDS011;68670;48.720;9.118;2023-12-07T06:59:57;10.55;;;4.28;;
79241;SDS011;68670;48.720;9.118;2023-12-07T07:02:22;13.57;;;5.60;;
79241;SDS011;68670;48.720;9.118;2023-12-07T07:04:50;12.52;;;4.47;;
79241;SDS011;68670;48.720;9.118;2023-12-07T07:07:16;13.70;;;4.88;;
79241;SDS011;68670;48.720;9.118;2023-12-07T07:09:42;15.50;;;6.00;;
79241;SDS011;68670;48.720;9.118;2023-12-07T07:12:07;16.50;;;5.77;;
79241;SDS011;68670;48.720;9.118;2023-12-07T07:14:33;17.88;;;6.57;;
79241;SDS011;68670;48.720;9.118;2023-12-07T07:17:01;17.83;;;6.32;;
79241;SDS011;68670;48.720;9.118;2023-12-07T07:19:26;27.57;;;9.90;;
79241;SDS011;68670;48.720;9.118;2023-12-07T07:21:51;21.67;;;8.30;;
79241;SDS011;68670;48.720;9.118;2023-12-07T07:24:16;27.63;;;12.23;;
79241;SDS011;68670;48.720;9.118;2023-12-07T07:26:44;18.42;;;7.40;;
79241;SDS011;68670;48.720;9.118;2023-12-07T07:29:09;12.57;;;5.03;;
79241;SDS011;68670;48.720;9.118;2023-12-07T07:31:37;14.10;;;5.47;;
79241;SDS011;68670;48.720;9.118;2023-12-07T07:34:02;17.90;;;6.93;;
79241;SDS011;68670;48.720;9.118;2023-12-07T07:36:30;16.92;;;5.82;;
79241;SDS011;68670;48.720;9.118;2023-12-07T07:38:58;13.50;;;5.50;;
79241;SDS011;68670;48.720;9.118;2023-12-07T07:41:26;13.55;;;5.43;;
79241;SDS011;68670;48.720;9.118;2023-12-07T07:43:51;15.82;;;6.53;;
79241;SDS011;68670;48.720;9.118;2023-12-07T07:46:17;21.00;;;8.43;;
79241;SDS011;68670;48.720;9.118;2023-12-07T07:48:42;23.70;;;11.55;;
79241;SDS011;68670;48.720;9.118;2023-12-07T07:51:10;17.05;;;7.88;;
79241;SDS011;68670;48.720;9.118;2023-12-07T07:53:37;13.60;;;5.47;;
79241;SDS011;68670;48.720;9.118;2023-12-07T07:56:02;15.18;;;5.88;;
79241;SDS011;68670;48.720;9.118;2023-12-07T07:58:28;13.98;;;5.40;;
79241;SDS011;68670;48.720;9.118;2023-12-07T08:00:53;15.77;;;5.10;;
79241;SDS011;68670;48.720;9.118;2023-12-07T08:03:21;13.70;;;5.67;;
79241;SDS011;68670;48.720;9.118;2023-12-07T08:05:46;12.90;;;5.07;;
79241;SDS011;68670;48.720;9.118;2023-12-07T08:08:12;8.68;;;4.15;;
79241;SDS011;68670;48.720;9.118;2023-12-07T08:10:37;14.30;;;5.07;;
79241;SDS011;68670;48.720;9.118;2023-12-07T08:13:06;12.13;;;4.82;;
79241;SDS011;68670;48.720;9.118;2023-12-07T08:15:35;16.90;;;5.10;;
79241;SDS011;68670;48.720;9.118;2023-12-07T08:18:00;11.43;;;4.25;;
79241;SDS011;68670;48.720;9.118;2023-12-07T08:20:27;11.93;;;4.07;;
79241;SDS011;68670;48.720;9.118;2023-12-07T08:22:52;11.37;;;4.93;;
79241;SDS011;68670;48.720;9.118;2023-12-07T08:25:17;11.13;;;4.63;;
79241;SDS011;68670;48.720;9.118;2023-12-07T08:27:42;14.37;;;5.17;;
79241;SDS011;68670;48.720;9.118;2023-12-07T08:30:13;11.90;;;4.75;;
79241;SDS011;68670;48.720;9.118;2023-12-07T08:32:41;9.75;;;4.45;;
79241;SDS011;68670;48.720;9.118;2023-12-07T08:35:06;9.50;;;4.10;;
79241;SDS011;68670;48.720;9.118;2023-12-07T08:37:36;10.85;;;4.40;;
79241;SDS011;68670;48.720;9.118;2023-12-07T08:40:03;11.63;;;4.15;;
79241;SDS011;68670;48.720;9.118;2023-12-07T08:42:28;11.02;;;4.20;;
79241;SDS011;68670;48.720;9.118;2023-12-07T08:44:59;10.55;;;4.03;;
79241;SDS011;68670;48.720;9.118;2023-12-07T08:47:26;7.90;;;3.67;;
79241;SDS011;68670;48.720;9.118;2023-12-07T08:49:53;7.03;;;4.13;;
79241;SDS011;68670;48.720;9.118;2023-12-07T08:52:21;10.60;;;4.07;;
79241;SDS011;68670;48.720;9.118;2023-12-07T08:57:17;6.78;;;3.05;;
79241;SDS011;68670;48.720;9.118;2023-12-07T08:59:43;10.05;;;4.63;;
79241;SDS011;68670;48.720;9.118;2023-12-07T09:02:16;12.93;;;4.63;;
79241;SDS011;68670;48.720;9.118;2023-12-07T09:04:41;11.57;;;4.45;;
79241;SDS011;68670;48.720;9.118;2023-12-07T09:07:06;12.13;;;4.77;;
79241;SDS011;68670;48.720;9.118;2023-12-07T09:09:32;10.98;;;4.53;;
79241;SDS011;68670;48.720;9.118;2023-12-07T09:11:57;10.10;;;4.38;;
79241;SDS011;68670;48.720;9.118;2023-12-07T09:14:22;11.80;;;5.17;;
79241;SDS011;68670;48.720;9.118;2023-12-07T09:16:48;9.57;;;4.43;;
79241;SDS011;68670;48.720;9.118;2023-12-07T09:19:13;13.03;;;4.43;;
79241;SDS011;68670;48.720;9.118;2023-12-07T09:21:43;10.93;;;4.32;;
79241;SDS011;68670;48.720;9.118;2023-12-07T09:24:11;9.70;;;3.67;;
79241;SDS011;68670;48.720;9.118;2023-12-07T09:26:38;7.93;;;3.38;;
79241;SDS011;68670;48.720;9.118;2023-12-07T09:29:04;6.37;;;3.43;;
79241;SDS011;68670;48.720;9.118;2023-12-07T09:31:30;6.32;;;3.15;;
79241;SDS011;68670;48.720;9.118;2023-12-07T09:33:56;9.83;;;2.80;;
79241;SDS011;68670;48.720;9.118;2023-12-07T09:36:21;5.65;;;2.75;;
79241;SDS011;68670;48.720;9.118;2023-12-07T09:38:49;7.18;;;3.20;;
79241;SDS011;68670;48.720;9.118;2023-12-07T09:41:14;6.55;;;2.65;;
79241;SDS011;68670;48.720;9.118;2023-12-07T09:43:42;9.47;;;3.00;;
79241;SDS011;68670;48.720;9.118;2023-12-07T09:46:07;7.68;;;3.03;;
79241;SDS011;68670;48.720;9.118;2023-12-07T09:48:33;5.50;;;2.80;;
79241;SDS011;68670;48.720;9.118;2023-12-07T09:51:02;7.50;;;3.03;;
79241;SDS011;68670;48.720;9.118;2023-12-07T09:53:28;6.13;;;2.78;;
79241;SDS011;68670;48.720;9.118;2023-12-07T09:55:56;5.65;;;3.10;;
79241;SDS011;68670;48.720;9.118;2023-12-07T09:58:24;7.50;;;3.28;;
79241;SDS011;68670;48.720;9.118;2023-12-07T10:00:49;8.77;;;3.47;;
79241;SDS011;68670;48.720;9.118;2023-12-07T10:03:20;7.38;;;3.47;;
79241;SDS011;68670;48.720;9.118;2023-12-07T10:05:57;8.32;;;3.90;;
79241;SDS011;68670;48.720;9.118;2023-12-07T10:08:31;9.02;;;3.95;;
79241;SDS011;68670;48.720;9.118;2023-12-07T10:13:32;8.32;;;3.97;;
79241;SDS011;68670;48.720;9.118;2023-12-07T10:16:04;8.73;;;3.70;;
79241;SDS011;68670;48.720;9.118;2023-12-07T10:18:34;10.73;;;3.72;;
79241;SDS011;68670;48.720;9.118;2023-12-07T10:21:02;10.68;;;3.90;;
79241;SDS011;68670;48.720;9.118;2023-12-07T10:23:28;9.07;;;3.90;;
79241;SDS011;68670;48.720;9.118;2023-12-07T10:25:59;10.70;;;4.50;;
79241;SDS011;68670;48.720;9.118;2023-12-07T10:28:29;9.20;;;3.95;;
79241;SDS011;68670;48.720;9.118;2023-12-07T10:30:55;8.43;;;4.13;;
79241;SDS011;68670;48.720;9.118;2023-12-07T10:33:25;11.07;;;4.35;;
79241;SDS011;68670;48.720;9.118;2023-12-07T10:35:53;8.95;;;3.88;;
79241;SDS011;68670;48.720;9.118;2023-12-07T10:38:23;9.25;;;4.13;;
79241;SDS011;68670;48.720;9.118;2023-12-07T10:43:23;11.10;;;4.03;;
79241;SDS011;68670;48.720;9.118;2023-12-07T10:45:49;8.57;;;3.33;;
79241;SDS011;68670;48.720;9.118;2023-12-07T10:48:14;13.30;;;3.70;;
79241;SDS011;68670;48.720;9.118;2023-12-07T10:50:42;7.93;;;3.72;;
79241;SDS011;68670;48.720;9.118;2023-12-07T10:53:24;7.80;;;3.88;;
79241;SDS011;68670;48.720;9.118;2023-12-07T10:55:59;6.78;;;3.65;;
79241;SDS011;68670;48.720;9.118;2023-12-07T10:58:25;7.32;;;3.40;;
79241;SDS011;68670;48.720;9.118;2023-12-07T11:00:55;8.05;;;3.90;;
79241;SDS011;68670;48.720;9.118;2023-12-07T11:05:47;7.63;;;3.47;;
79241;SDS011;68670;48.720;9.118;2023-12-07T11:08:27;8.07;;;3.42;;
79241;SDS011;68670;48.720;9.118;2023-12-07T11:11:06;7.88;;;3.60;;
79241;SDS011;68670;48.720;9.118;2023-12-07T11:13:37;7.35;;;3.03;;
79241;SDS011;68670;48.720;9.118;2023-12-07T11:16:06;7.63;;;3.10;;
79241;SDS011;68670;48.720;9.118;2023-12-07T11:18:31;7.15;;;3.00;;
79241;SDS011;68670;48.720;9.118;2023-12-07T11:20:57;7.55;;;3.22;;
79241;SDS011;68670;48.720;9.118;2023-12-07T11:23:23;6.95;;;2.72;;
79241;SDS011;68670;48.720;9.118;2023-12-07T11:25:49;7.38;;;3.03;;
79241;SDS011;68670;48.720;9.118;2023-12-07T11:28:19;7.75;;;2.63;;
79241;SDS011;68670;48.720;9.118;2023-12-07T11:31:02;9.88;;;3.10;;
79241;SDS011;68670;48.720;9.118;2023-12-07T11:33:29;5.30;;;2.55;;
79241;SDS011;68670;48.720;9.118;2023-12-07T11:38:29;5.25;;;2.55;;
79241;SDS011;68670;48.720;9.118;2023-12-07T11:40:55;6.25;;;2.60;;
79241;SDS011;68670;48.720;9.118;2023-12-07T11:46:00;7.90;;;2.47;;
79241;SDS011;68670;48.720;9.118;2023-12-07T11:48:26;5.82;;;2.40;;
79241;SDS011;68670;48.720;9.118;2023-12-07T11:51:03;5.15;;;2.47;;
79241;SDS011;68670;48.720;9.118;2023-12-07T11:53:33;4.88;;;2.55;;
79241;SDS011;68670;48.720;9.118;2023-12-07T11:56:02;8.13;;;3.15;;
79241;SDS011;68670;48.720;9.118;2023-12-07T11:58:32;8.00;;;3.25;;
79241;SDS011;68670;48.720;9.118;2023-12-07T12:00:58;7.60;;;2.72;;
79241;SDS011;68670;48.720;9.118;2023-12-07T12:03:25;5.40;;;2.67;;
79241;SDS011;68670;48.720;9.118;2023-12-07T12:05:53;5.82;;;2.60;;
79241;SDS011;68670;48.720;9.118;2023-12-07T12:08:19;7.50;;;3.00;;
79241;SDS011;68670;48.720;9.118;2023-12-07T12:10:45;6.82;;;2.90;;
79241;SDS011;68670;48.720;9.118;2023-12-07T12:13:12;4.35;;;2.53;;
79241;SDS011;68670;48.720;9.118;2023-12-07T12:15:38;7.18;;;3.30;;
79241;SDS011;68670;48.720;9.118;2023-12-07T12:18:04;8.00;;;3.42;;
79241;SDS011;68670;48.720;9.118;2023-12-07T12:20:33;5.93;;;3.00;;
79241;SDS011;68670;48.720;9.118;2023-12-07T12:22:59;5.78;;;3.13;;
79241;SDS011;68670;48.720;9.118;2023-12-07T12:25:25;5.60;;;2.70;;
79241;SDS011;68670;48.720;9.118;2023-12-07T12:27:56;7.72;;;3.08;;
79241;SDS011;68670;48.720;9.118;2023-12-07T12:30:23;6.30;;;2.92;;
79241;SDS011;68670;48.720;9.118;2023-12-07T12:32:49;6.30;;;2.55;;
79241;SDS011;68670;48.720;9.118;2023-12-07T12:35:15;4.88;;;2.33;;
79241;SDS011;68670;48.720;9.118;2023-12-07T12:37:46;4.88;;;2.40;;
79241;SDS011;68670;48.720;9.118;2023-12-07T12:40:15;4.20;;;2.33;;
79241;SDS011;68670;48.720;9.118;2023-12-07T12:45:11;6.72;;;2.20;;
79241;SDS011;68670;48.720;9.118;2023-12-07T12:47:37;4.38;;;2.38;;
79241;SDS011;68670;48.720;9.118;2023-12-07T12:50:03;5.43;;;2.95;;
79241;SDS011;68670;48.720;9.118;2023-12-07T12:52:34;5.47;;;2.60;;
79241;SDS011;68670;48.720;9.118;2023-12-07T12:55:00;6.78;;;2.60;;
79241;SDS011;68670;48.720;9.118;2023-12-07T12:57:31;5.75;;;2.67;;
79241;SDS011;68670;48.720;9.118;2023-12-07T12:59:57;6.07;;;2.60;;
79241;SDS011;68670;48.720;9.118;2023-12-07T13:02:26;4.85;;;2.25;;
79241;SDS011;68670;48.720;9.118;2023-12-07T13:04:51;4.50;;;1.97;;
79241;SDS011;68670;48.720;9.118;2023-12-07T13:07:17;6.03;;;2.87;;
79241;SDS011;68670;48.720;9.118;2023-12-07T13:09:44;4.65;;;2.42;;
79241;SDS011;68670;48.720;9.118;2023-12-07T13:12:10;5.85;;;2.60;;
79241;SDS011;68670;48.720;9.118;2023-12-07T13:14:35;5.55;;;2.67;;
79241;SDS011;68670;48.720;9.118;2023-12-07T13:17:03;4.95;;;2.92;;
79241;SDS011;68670;48.720;9.118;2023-12-07T13:21:58;6.00;;;2.70;;
79241;SDS011;68670;48.720;9.118;2023-12-07T13:24:26;7.35;;;2.92;;
79241;SDS011;68670;48.720;9.118;2023-12-07T13:26:51;7.55;;;3.30;;
79241;SDS011;68670;48.720;9.118;2023-12-07T13:29:16;7.87;;;3.30;;
79241;SDS011;68670;48.720;9.118;2023-12-07T13:31:46;5.68;;;2.55;;
79241;SDS011;68670;48.720;9.118;2023-12-07T13:34:11;6.80;;;3.17;;
79241;SDS011;68670;48.720;9.118;2023-12-07T13:36:38;5.90;;;2.67;;
79241;SDS011;68670;48.720;9.118;2023-12-07T13:39:06;6.03;;;2.42;;
79241;SDS011;68670;48.720;9.118;2023-12-07T13:41:34;6.97;;;3.00;;
79241;SDS011;68670;48.720;9.118;2023-12-07T13:44:02;5.65;;;2.53;;
79241;SDS011;68670;48.720;9.118;2023-12-07T13:46:27;5.47;;;2.60;;
79241;SDS011;68670;48.720;9.118;2023-12-07T13:48:52;5.73;;;2.53;;
79241;SDS011;68670;48.720;9.118;2023-12-07T13:51:18;5.83;;;2.33;;
79241;SDS011;68670;48.720;9.118;2023-12-07T13:53:43;7.57;;;3.38;;
79241;SDS011;68670;48.720;9.118;2023-12-07T13:56:11;7.65;;;2.90;;
79241;SDS011;68670;48.720;9.118;2023-12-07T13:58:36;10.10;;;3.77;;
79241;SDS011;68670;48.720;9.118;2023-12-07T14:01:03;6.40;;;3.05;;
79241;SDS011;68670;48.720;9.118;2023-12-07T14:03:29;6.45;;;2.53;;
79241;SDS011;68670;48.720;9.118;2023-12-07T14:05:54;6.27;;;3.00;;
79241;SDS011;68670;48.720;9.118;2023-12-07T14:08:20;5.00;;;2.15;;
79241;SDS011;68670;48.720;9.118;2023-12-07T14:10:45;7.07;;;2.83;;
79241;SDS011;68670;48.720;9.118;2023-12-07T14:13:15;6.55;;;2.70;;
79241;SDS011;68670;48.720;9.118;2023-12-07T14:15:43;6.65;;;3.10;;
79241;SDS011;68670;48.720;9.118;2023-12-07T14:18:10;5.43;;;2.60;;
79241;SDS011;68670;48.720;9.118;2023-12-07T14:20:35;6.77;;;2.80;;
79241;SDS011;68670;48.720;9.118;2023-12-07T14:23:01;7.10;;;2.33;;
79241;SDS011;68670;48.720;9.118;2023-12-07T14:25:29;3.85;;;1.92;;
79241;SDS011;68670;48.720;9.118;2023-12-07T14:27:55;5.40;;;2.33;;
79241;SDS011;68670;48.720;9.118;2023-12-07T14:30:20;6.63;;;2.03;;
79241;SDS011;68670;48.720;9.118;2023-12-07T14:32:47;7.00;;;3.40;;
79241;SDS011;68670;48.720;9.118;2023-12-07T14:35:19;6.30;;;2.80;;
79241;SDS011;68670;48.720;9.118;2023-12-07T14:37:46;6.32;;;3.20;;
79241;SDS011;68670;48.720;9.118;2023-12-07T14:40:14;5.78;;;2.53;;
79241;SDS011;68670;48.720;9.118;2023-12-07T14:42:42;4.00;;;2.30;;
79241;SDS011;68670;48.720;9.118;2023-12-07T14:45:10;8.30;;;2.08;;
79241;SDS011;68670;48.720;9.118;2023-12-07T14:47:38;5.70;;;2.00;;
79241;SDS011;68670;48.720;9.118;2023-12-07T14:50:06;3.50;;;1.90;;
79241;SDS011;68670;48.720;9.118;2023-12-07T14:52:34;7.32;;;3.22;;
79241;SDS011;68670;48.720;9.118;2023-12-07T14:55:00;8.47;;;2.80;;
79241;SDS011;68670;48.720;9.118;2023-12-07T14:57:25;3.77;;;2.00;;
79241;SDS011;68670;48.720;9.118;2023-12-07T14:59:53;3.43;;;1.77;;
79241;SDS011;68670;48.720;9.118;2023-12-07T15:02:19;5.03;;;2.08;;
79241;SDS011;68670;48.720;9.118;2023-12-07T15:04:44;4.17;;;1.87;;
79241;SDS011;68670;48.720;9.118;2023-12-07T15:07:09;3.73;;;1.80;;